createdAt,value
2018-12-07T00:03:04.614Z,1006.73
2018-12-07T00:08:00.572Z,1006.71
2018-12-07T00:12:56.837Z,1006.78
2018-12-07T00:17:52.649Z,1006.57
2018-12-07T00:22:48.488Z,1006.60
2018-12-07T00:27:44.192Z,1006.56
2018-12-07T00:32:39.978Z,1006.57
2018-12-07T00:37:36.563Z,1006.45
2018-12-07T00:42:32.371Z,1006.36
2018-12-07T00:47:28.246Z,1006.23
2018-12-07T00:52:24.104Z,1006.42
2018-12-07T00:57:20.097Z,1006.36
2018-12-07T01:02:16.904Z,1006.23
2018-12-07T01:07:13.399Z,1006.12
2018-12-07T01:12:08.773Z,1006.02
2018-12-07T01:17:04.325Z,1006.07
2018-12-07T01:22:00.188Z,1005.98
2018-12-07T01:26:55.735Z,1005.88
2018-12-07T01:31:51.657Z,1005.82
2018-12-07T01:36:47.383Z,1005.78
2018-12-07T01:41:43.286Z,1005.78
2018-12-07T01:46:39.262Z,1005.71
2018-12-07T01:51:35.984Z,1005.71
2018-12-07T01:56:31.664Z,1005.70
2018-12-07T02:01:27.413Z,1005.64
2018-12-07T02:06:23.283Z,1005.59
2018-12-07T02:11:19.491Z,1005.54
2018-12-07T02:16:16.183Z,1005.44
2018-12-07T02:21:12.476Z,1005.44
2018-12-07T02:26:08.306Z,1005.26
2018-12-07T02:31:04.290Z,1005.24
2018-12-07T02:35:59.692Z,1005.23
2018-12-07T02:40:56.808Z,1005.16
2018-12-07T02:45:52.217Z,1005.02
2018-12-07T02:50:48.284Z,1004.88
2018-12-07T02:55:44.947Z,1005.06
2018-12-07T03:00:41.381Z,1004.89
2018-12-07T03:05:37.865Z,1004.91
2018-12-07T03:10:33.333Z,1004.83
2018-12-07T03:15:30.144Z,1004.91
2018-12-07T03:20:25.754Z,1004.70
2018-12-07T03:25:23.000Z,1004.63
2018-12-07T03:30:18.403Z,1004.64
2018-12-07T03:35:14.680Z,1004.59
2018-12-07T03:40:11.488Z,1004.52
2018-12-07T03:45:06.912Z,1004.34
2018-12-07T03:50:02.690Z,1004.26
2018-12-07T03:54:58.159Z,1004.24
2018-12-07T03:59:54.063Z,1004.24
2018-12-07T04:04:50.157Z,1004.03
2018-12-07T04:09:46.605Z,1003.99
2018-12-07T04:14:42.040Z,1004.01
2018-12-07T04:19:38.677Z,1003.96
2018-12-07T04:24:34.807Z,1003.80
2018-12-07T04:29:30.999Z,1003.95
2018-12-07T04:34:28.163Z,1003.79
2018-12-07T04:39:23.721Z,1003.91
2018-12-07T04:44:19.006Z,1003.77
2018-12-07T04:49:14.983Z,1003.74
2018-12-07T04:54:10.824Z,1003.66
2018-12-07T04:59:06.216Z,1003.65
2018-12-07T05:04:03.136Z,1003.56
2018-12-07T05:08:58.662Z,1003.54
2018-12-07T05:13:54.471Z,1003.53
2018-12-07T05:18:50.389Z,1003.36
2018-12-07T05:23:46.101Z,1003.35
2018-12-07T05:28:42.026Z,1003.28
2018-12-07T05:33:37.944Z,1003.20
2018-12-07T05:38:33.800Z,1003.14
2018-12-07T05:43:29.567Z,1003.05
2018-12-07T05:48:25.237Z,1002.94
2018-12-07T05:53:22.004Z,1002.92
2018-12-07T05:58:17.581Z,1002.91
2018-12-07T06:03:13.673Z,1002.75
2018-12-07T06:08:09.270Z,1002.64
2018-12-07T06:13:06.459Z,1002.63
2018-12-07T06:18:02.288Z,1002.53
2018-12-07T06:22:59.063Z,1002.62
2018-12-07T06:27:55.535Z,1002.55
2018-12-07T06:32:51.390Z,1002.55
2018-12-07T06:37:47.992Z,1002.47
2018-12-07T06:42:43.334Z,1002.33
2018-12-07T06:47:39.105Z,1002.34
2018-12-07T06:52:35.613Z,1002.23
2018-12-07T06:57:31.438Z,1002.06
2018-12-07T07:02:26.758Z,1001.96
2018-12-07T07:07:22.539Z,1001.94
2018-12-07T07:12:19.263Z,1001.93
2018-12-07T07:17:14.845Z,1001.96
2018-12-07T07:22:10.390Z,1001.79
2018-12-07T07:27:07.268Z,1001.76
2018-12-07T07:32:03.437Z,1001.78
2018-12-07T07:36:58.952Z,1001.69
2018-12-07T07:41:54.553Z,1001.69
2018-12-07T07:46:50.365Z,1001.63
2018-12-07T07:51:47.232Z,1001.58
2018-12-07T07:56:42.760Z,1001.45
2018-12-07T08:01:38.389Z,1001.45
2018-12-07T08:06:33.955Z,1001.29
2018-12-07T08:11:30.592Z,1001.31
2018-12-07T08:16:26.363Z,1001.38
2018-12-07T08:21:21.878Z,1001.16
2018-12-07T08:26:17.805Z,1001.18
2018-12-07T08:31:13.421Z,1001.16
2018-12-07T08:36:10.611Z,1001.20
2018-12-07T08:41:06.286Z,1001.07
2018-12-07T08:46:02.984Z,1000.99
2018-12-07T08:50:58.828Z,1000.89
2018-12-07T08:55:56.082Z,1000.82
2018-12-07T09:00:51.538Z,1000.75
2018-12-07T09:05:48.326Z,1000.66
2018-12-07T09:10:44.181Z,1000.57
2018-12-07T09:15:41.107Z,1000.56
2018-12-07T09:20:37.476Z,1000.46
2018-12-07T09:25:33.168Z,1000.44
2018-12-07T09:30:28.718Z,1000.32
2018-12-07T09:35:24.816Z,1000.28
2018-12-07T09:40:20.447Z,1000.34
2018-12-07T09:45:16.282Z,1000.29
2018-12-07T09:50:11.669Z,1000.12
2018-12-07T09:55:07.367Z,1000.08
2018-12-07T10:00:04.312Z,999.94
2018-12-07T10:04:59.784Z,999.87
2018-12-07T10:09:55.638Z,999.70
2018-12-07T10:14:51.710Z,999.73
2018-12-07T10:19:47.380Z,999.49
2018-12-07T10:24:43.159Z,999.41
2018-12-07T10:29:39.714Z,999.19
2018-12-07T10:34:36.305Z,999.18
2018-12-07T10:39:33.061Z,999.07
2018-12-07T10:44:29.293Z,998.94
2018-12-07T10:49:24.779Z,998.85
2018-12-07T10:54:21.361Z,998.77
2018-12-07T10:59:17.145Z,998.61
2018-12-07T11:04:12.919Z,998.51
2018-12-07T11:09:09.482Z,998.48
2018-12-07T11:14:05.274Z,998.18
2018-12-07T11:19:01.176Z,998.01
2018-12-07T11:23:56.905Z,997.96
2018-12-07T11:28:53.019Z,997.82
2018-12-07T11:33:48.556Z,997.64
2018-12-07T11:38:44.273Z,997.63
2018-12-07T11:43:41.195Z,997.53
2018-12-07T11:48:36.552Z,997.36
2018-12-07T11:53:32.426Z,997.33
2018-12-07T11:58:28.248Z,997.12
2018-12-07T12:03:23.999Z,997.04
2018-12-07T12:08:21.229Z,996.74
2018-12-07T12:13:17.795Z,996.55
2018-12-07T12:18:13.523Z,996.43
2018-12-07T12:23:09.332Z,996.18
2018-12-07T12:28:05.139Z,996.15
2018-12-07T12:33:02.561Z,996.03
2018-12-07T12:37:58.079Z,995.83
2018-12-07T12:42:53.764Z,995.59
2018-12-07T12:47:49.686Z,995.54
2018-12-07T12:52:45.423Z,995.41
2018-12-07T12:57:41.050Z,995.31
2018-12-07T13:02:36.823Z,995.24
2018-12-07T13:07:32.576Z,995.12
2018-12-07T13:12:28.510Z,994.94
2018-12-07T13:17:24.517Z,994.75
2018-12-07T13:22:21.399Z,994.56
2018-12-07T13:27:16.868Z,994.56
2018-12-07T13:32:12.671Z,994.42
2018-12-07T13:37:09.358Z,994.20
2018-12-07T13:42:06.049Z,993.98
2018-12-07T13:47:02.492Z,993.99
2018-12-07T13:51:57.613Z,993.91
2018-12-07T13:56:53.569Z,993.79
2018-12-07T14:01:49.423Z,993.77
2018-12-07T14:06:45.149Z,993.63
2018-12-07T14:11:41.036Z,993.55
2018-12-07T14:16:36.881Z,993.48
2018-12-07T14:21:33.355Z,993.48
2018-12-07T14:26:30.157Z,993.50
2018-12-07T14:31:25.623Z,993.34
2018-12-07T14:36:21.488Z,993.14
2018-12-07T14:41:17.061Z,993.06
2018-12-07T14:46:13.263Z,992.97
2018-12-07T14:51:09.352Z,992.85
2018-12-07T14:56:05.159Z,992.81
2018-12-07T15:01:00.906Z,992.69
2018-12-07T15:05:57.480Z,992.55
2018-12-07T15:10:52.973Z,992.52
2018-12-07T15:15:48.374Z,992.35
2018-12-07T15:20:44.211Z,992.25
2018-12-07T15:25:39.965Z,992.18
2018-12-07T15:30:35.787Z,992.02
2018-12-07T15:35:31.621Z,991.97
2018-12-07T15:40:27.405Z,991.79
2018-12-07T15:45:24.159Z,991.68
2018-12-07T15:50:25.109Z,991.62
2018-12-07T15:55:20.280Z,991.60
2018-12-07T16:00:16.595Z,991.60
2018-12-07T16:05:13.040Z,991.38
2018-12-07T16:10:08.541Z,991.29
2018-12-07T16:15:04.410Z,991.25
2018-12-07T16:20:01.176Z,991.18
2018-12-07T16:24:57.258Z,991.20
2018-12-07T16:29:53.102Z,991.20
2018-12-07T16:34:49.287Z,991.02
2018-12-07T16:39:46.121Z,990.93
2018-12-07T16:44:41.673Z,990.87
2018-12-07T16:49:38.399Z,990.74
2018-12-07T16:54:35.024Z,990.59
2018-12-07T16:59:30.396Z,990.41
2018-12-07T17:04:27.875Z,990.27
2018-12-07T17:09:23.387Z,990.29
2018-12-07T17:14:20.130Z,990.18
2018-12-07T17:19:16.738Z,990.09
2018-12-07T17:24:12.493Z,990.04
2018-12-07T17:29:08.153Z,989.90
2018-12-07T17:34:04.431Z,989.96
2018-12-07T17:39:00.953Z,989.85
2018-12-07T17:43:56.937Z,989.79
2018-12-07T17:48:52.530Z,989.67
2018-12-07T17:53:49.433Z,989.79
2018-12-07T17:58:44.965Z,989.77
2018-12-07T18:03:40.780Z,989.75
2018-12-07T18:08:36.642Z,989.73
2018-12-07T18:13:32.425Z,989.87
2018-12-07T18:18:29.106Z,989.96
2018-12-07T18:23:24.892Z,990.48
2018-12-07T18:28:20.653Z,990.51
2018-12-07T18:33:16.338Z,990.69
2018-12-07T18:38:12.202Z,990.95
2018-12-07T18:43:07.783Z,991.24
2018-12-07T18:48:05.101Z,991.38
2018-12-07T18:53:01.246Z,991.43
2018-12-07T18:57:58.231Z,991.79
2018-12-07T19:02:53.664Z,991.98
2018-12-07T19:07:50.434Z,992.04
2018-12-07T19:12:45.843Z,992.10
2018-12-07T19:17:41.893Z,992.29
2018-12-07T19:22:38.688Z,992.45
2018-12-07T19:27:35.216Z,992.61
2018-12-07T19:32:30.641Z,992.85
2018-12-07T19:37:26.592Z,992.94
2018-12-07T19:42:23.784Z,993.26
2018-12-07T19:47:20.305Z,993.34
2018-12-07T19:52:16.206Z,993.41
2018-12-07T19:57:11.906Z,993.64
2018-12-07T20:02:07.811Z,993.72
2018-12-07T20:07:03.516Z,993.77
2018-12-07T20:12:00.360Z,993.85
2018-12-07T20:16:55.992Z,994.10
2018-12-07T20:21:51.718Z,993.95
2018-12-07T20:26:47.500Z,994.18
2018-12-07T20:31:43.497Z,994.37
2018-12-07T20:36:39.357Z,994.49
2018-12-07T20:41:35.942Z,994.75
2018-12-07T20:46:31.362Z,994.95
2018-12-07T20:51:27.538Z,994.88
2018-12-07T20:56:23.366Z,995.00
2018-12-07T21:01:19.036Z,995.12
2018-12-07T21:06:15.513Z,995.15
2018-12-07T21:11:12.100Z,995.15
2018-12-07T21:16:07.936Z,995.25
2018-12-07T21:21:04.786Z,995.33
2018-12-07T21:26:00.365Z,995.45
2018-12-07T21:30:55.958Z,995.40
2018-12-07T21:35:52.020Z,995.49
2018-12-07T21:40:48.242Z,995.55
2018-12-07T21:45:45.481Z,995.71
2018-12-07T21:50:41.116Z,995.72
2018-12-07T21:55:36.975Z,995.95
2018-12-07T22:00:33.787Z,995.92
2018-12-07T22:05:29.482Z,995.99
2018-12-07T22:10:25.022Z,995.93
2018-12-07T22:15:20.944Z,995.84
2018-12-07T22:20:16.508Z,996.01
2018-12-07T22:25:13.299Z,996.20
2018-12-07T22:30:09.063Z,996.32
2018-12-07T22:35:04.768Z,996.28
2018-12-07T22:40:00.489Z,996.21
2018-12-07T22:44:56.697Z,996.27
2018-12-07T22:49:52.447Z,996.41
2018-12-07T22:54:48.087Z,996.42
2018-12-07T22:59:44.913Z,996.50
2018-12-07T23:04:40.263Z,996.64
2018-12-07T23:09:36.112Z,996.58
2018-12-07T23:14:32.715Z,996.64
2018-12-07T23:19:29.007Z,996.64
2018-12-07T23:24:25.680Z,996.68
2018-12-07T23:29:20.973Z,996.71
2018-12-07T23:34:16.795Z,996.72
2018-12-07T23:39:12.493Z,996.84
2018-12-07T23:44:08.104Z,996.81
2018-12-07T23:49:04.655Z,996.73
2018-12-07T23:54:01.223Z,996.68
2018-12-07T23:58:56.537Z,996.64
